createdAt,value
2023-03-05T00:01:52.102Z,21.20
2023-03-05T00:06:55.554Z,36.80
2023-03-05T00:12:00.650Z,24.90
2023-03-05T00:17:02.767Z,30.00
2023-03-05T00:22:04.561Z,36.80
2023-03-05T00:27:06.357Z,27.00
2023-03-05T00:32:10.008Z,22.00
2023-03-05T00:37:12.064Z,19.00
2023-03-05T00:42:38.588Z,12.00
2023-03-05T00:47:40.452Z,17.20
2023-03-05T00:52:45.913Z,14.10
2023-03-05T00:57:47.812Z,15.30
2023-03-05T01:02:49.589Z,14.80
2023-03-05T01:07:55.641Z,23.00
2023-03-05T01:12:57.993Z,8.50
2023-03-05T01:17:59.784Z,11.70
2023-03-05T01:23:01.934Z,12.20
2023-03-05T01:28:04.283Z,9.60
2023-03-05T01:33:07.241Z,14.70
2023-03-05T01:38:09.179Z,11.00
2023-03-05T01:43:11.382Z,10.70
2023-03-05T01:48:13.243Z,14.70
2023-03-05T01:53:15.361Z,16.80
2023-03-05T01:58:17.398Z,14.90
2023-03-05T02:03:20.315Z,13.30
2023-03-05T02:08:22.811Z,14.90
2023-03-05T02:13:29.521Z,8.00
2023-03-05T02:18:31.287Z,20.20
2023-03-05T02:23:38.334Z,14.80
2023-03-05T02:28:46.958Z,15.30
2023-03-05T02:33:50.075Z,13.60
2023-03-05T02:38:53.683Z,14.10
2023-03-05T02:43:55.780Z,19.50
2023-03-05T02:48:57.773Z,19.20
2023-03-05T02:53:59.454Z,16.40
2023-03-05T02:59:02.550Z,20.50
2023-03-05T03:04:04.648Z,42.40
2023-03-05T03:09:06.628Z,35.10
2023-03-05T03:14:08.621Z,23.80
2023-03-05T03:19:10.893Z,27.90
2023-03-05T03:24:12.577Z,27.30
2023-03-05T03:29:14.293Z,24.00
2023-03-05T03:34:17.218Z,26.30
2023-03-05T03:39:20.192Z,38.20
2023-03-05T03:44:22.759Z,19.30
2023-03-05T03:49:26.650Z,17.00
2023-03-05T03:54:28.403Z,22.10
2023-03-05T03:59:30.271Z,18.20
2023-03-05T04:04:32.066Z,15.50
2023-03-05T04:09:33.805Z,22.40
2023-03-05T04:14:36.047Z,34.70
2023-03-05T04:19:37.707Z,16.20
2023-03-05T04:24:39.413Z,20.40
2023-03-05T04:29:41.123Z,12.70
2023-03-05T04:34:42.773Z,11.30
2023-03-05T04:39:44.547Z,17.50
2023-03-05T04:45:08.969Z,16.70
2023-03-05T04:51:05.200Z,14.70
2023-03-05T04:57:01.013Z,29.80
2023-03-05T05:02:47.772Z,14.40
2023-03-05T05:07:49.957Z,16.80
2023-03-05T05:12:51.719Z,11.70
2023-03-05T05:17:53.702Z,7.00
2023-03-05T05:22:55.461Z,18.20
2023-03-05T05:27:57.142Z,17.70
2023-03-05T05:32:59.003Z,12.50
2023-03-05T05:38:00.675Z,12.20
2023-03-05T05:43:02.582Z,6.30
2023-03-05T05:48:04.304Z,12.50
2023-03-05T05:53:06.035Z,5.80
2023-03-05T05:58:07.736Z,15.30
2023-03-05T06:03:09.710Z,9.80
2023-03-05T06:08:11.674Z,10.50
2023-03-05T06:13:13.395Z,9.00
2023-03-05T06:18:15.091Z,16.60
2023-03-05T06:23:16.757Z,11.60
2023-03-05T06:28:18.594Z,17.80
2023-03-05T06:33:20.493Z,19.40
2023-03-05T06:38:22.399Z,14.70
2023-03-05T06:43:24.050Z,12.30
2023-03-05T06:48:25.756Z,13.60
2023-03-05T06:53:27.811Z,13.30
2023-03-05T06:58:29.585Z,9.60
2023-03-05T07:03:31.316Z,8.40
2023-03-05T07:08:33.124Z,22.30
2023-03-05T07:13:34.822Z,17.40
2023-03-05T07:18:36.785Z,19.40
2023-03-05T07:23:38.707Z,18.30
2023-03-05T07:28:41.272Z,14.40
2023-03-05T07:33:43.037Z,15.60
2023-03-05T07:38:45.170Z,16.40
2023-03-05T07:43:48.763Z,14.40
2023-03-05T07:48:50.891Z,20.10
2023-03-05T07:53:55.244Z,17.70
2023-03-05T07:59:13.407Z,17.70
2023-03-05T08:04:15.235Z,20.50
2023-03-05T08:09:18.067Z,16.50
2023-03-05T08:14:19.727Z,19.40
2023-03-05T08:19:21.744Z,18.60
2023-03-05T08:24:29.322Z,34.00
2023-03-05T08:29:31.074Z,17.50
2023-03-05T08:34:32.793Z,21.90
2023-03-05T08:39:35.545Z,27.00
2023-03-05T08:44:37.178Z,23.90
2023-03-05T08:49:39.255Z,27.00
2023-03-05T08:54:40.913Z,24.20
2023-03-05T08:59:42.652Z,26.70
2023-03-05T09:04:44.333Z,27.60
2023-03-05T09:09:46.096Z,27.80
2023-03-05T09:14:47.815Z,27.50
2023-03-05T09:19:49.931Z,25.10
2023-03-05T09:24:51.622Z,17.60
2023-03-05T09:29:53.302Z,19.10
2023-03-05T09:34:54.944Z,23.40
2023-03-05T09:39:57.611Z,20.50
2023-03-05T09:45:17.880Z,15.90
2023-03-05T09:50:25.586Z,12.20
2023-03-05T09:55:40.273Z,14.00
2023-03-05T10:00:49.263Z,11.20
2023-03-05T10:06:26.344Z,12.50
2023-03-05T10:11:41.072Z,8.70
2023-03-05T10:16:57.775Z,8.80
2023-03-05T10:22:20.673Z,12.50
2023-03-05T10:27:54.260Z,11.10
2023-03-05T10:33:26.323Z,9.50
2023-03-05T10:38:38.479Z,11.70
2023-03-05T10:43:46.515Z,9.70
2023-03-05T10:48:56.671Z,7.80
2023-03-05T10:54:04.783Z,8.70
2023-03-05T10:59:06.560Z,10.30
2023-03-05T11:04:26.559Z,8.50
2023-03-05T11:09:32.535Z,8.90
2023-03-05T11:14:37.500Z,6.50
2023-03-05T11:19:39.601Z,7.70
2023-03-05T11:24:46.638Z,12.50
2023-03-05T11:29:49.604Z,10.00
2023-03-05T11:34:52.365Z,7.90
2023-03-05T11:40:22.431Z,7.90
2023-03-05T11:45:26.031Z,12.30
2023-03-05T11:50:30.958Z,7.90
2023-03-05T11:55:48.639Z,5.50
2023-03-05T12:00:50.616Z,6.40
2023-03-05T12:06:12.666Z,4.90
2023-03-05T12:11:20.955Z,3.30
2023-03-05T12:16:33.367Z,5.50
2023-03-05T12:21:41.258Z,5.90
2023-03-05T12:27:04.417Z,7.80
2023-03-05T12:32:35.325Z,4.50
2023-03-05T12:37:43.325Z,6.70
2023-03-05T12:43:04.733Z,5.00
2023-03-05T12:48:12.196Z,8.50
2023-03-05T12:53:19.962Z,6.50
2023-03-05T12:58:44.018Z,5.80
2023-03-05T13:03:52.888Z,6.30
2023-03-05T13:09:03.865Z,8.80
2023-03-05T13:14:33.999Z,7.40
2023-03-05T13:19:36.249Z,6.70
2023-03-05T13:24:38.152Z,9.10
2023-03-05T13:29:51.123Z,8.20
2023-03-05T13:34:56.546Z,6.30
2023-03-05T13:40:07.262Z,8.20
2023-03-05T13:45:29.190Z,6.70
2023-03-05T13:50:32.484Z,10.60
2023-03-05T13:55:34.227Z,8.50
2023-03-05T14:00:38.914Z,7.50
2023-03-05T14:05:44.129Z,7.20
2023-03-05T14:10:46.030Z,9.50
2023-03-05T14:16:07.302Z,6.20
2023-03-05T14:21:12.322Z,12.00
2023-03-05T14:26:32.679Z,7.40
2023-03-05T14:31:45.726Z,6.60
2023-03-05T14:36:52.762Z,12.10
2023-03-05T14:41:54.891Z,10.80
2023-03-05T14:46:56.587Z,8.60
2023-03-05T14:51:58.272Z,7.10
2023-03-05T14:57:00.293Z,6.50
2023-03-05T15:02:02.009Z,7.20
2023-03-05T15:07:03.851Z,4.80
2023-03-05T15:12:16.493Z,5.40
2023-03-05T15:17:42.485Z,6.80
2023-03-05T15:22:44.198Z,6.60
2023-03-05T15:27:47.214Z,9.50
2023-03-05T15:32:51.462Z,8.80
2023-03-05T15:37:53.556Z,7.60
2023-03-05T15:42:56.803Z,7.10
2023-03-05T15:48:00.042Z,7.10
2023-03-05T15:53:01.826Z,4.70
2023-03-05T16:03:06.269Z,6.10
2023-03-05T16:08:08.767Z,3.80
2023-03-05T16:13:16.036Z,6.40
2023-03-05T16:18:19.091Z,9.90
2023-03-05T16:23:22.292Z,4.70
2023-03-05T16:28:33.423Z,9.30
2023-03-05T16:33:35.109Z,10.20
2023-03-05T16:38:37.655Z,6.50
2023-03-05T16:43:40.185Z,13.90
2023-03-05T16:48:43.493Z,12.20
2023-03-05T16:53:46.007Z,15.10
2023-03-05T16:58:50.488Z,9.10
2023-03-05T17:03:54.276Z,10.00
2023-03-05T17:08:56.976Z,8.60
2023-03-05T17:13:58.800Z,7.60
2023-03-05T17:19:00.582Z,12.10
2023-03-05T17:24:02.302Z,13.40
2023-03-05T17:29:06.463Z,12.40
2023-03-05T17:34:08.257Z,10.20
2023-03-05T17:39:10.076Z,11.90
2023-03-05T17:44:12.339Z,10.70
2023-03-05T17:49:14.260Z,9.00
2023-03-05T17:54:16.022Z,7.70
2023-03-05T17:59:18.194Z,9.80
2023-03-05T18:04:20.557Z,18.70
2023-03-05T18:09:22.717Z,13.00
2023-03-05T18:14:25.170Z,7.80
2023-03-05T18:19:27.463Z,11.70
2023-03-05T18:24:29.192Z,18.50
2023-03-05T18:29:31.431Z,20.90
2023-03-05T18:34:33.164Z,33.60
2023-03-05T18:39:35.677Z,16.20
2023-03-05T18:44:37.537Z,20.20
2023-03-05T18:49:39.244Z,16.80
2023-03-05T18:54:40.934Z,16.90
2023-03-05T18:59:42.705Z,11.10
2023-03-05T19:04:47.157Z,12.00
2023-03-05T19:09:58.140Z,12.00
2023-03-05T19:15:02.318Z,11.80
2023-03-05T19:20:07.695Z,9.10
2023-03-05T19:25:10.830Z,12.10
2023-03-05T19:30:13.850Z,14.10
2023-03-05T19:35:16.944Z,11.70
2023-03-05T19:40:19.453Z,13.50
2023-03-05T19:45:21.961Z,38.10
2023-03-05T19:50:23.850Z,45.20
2023-03-05T19:55:25.573Z,38.30
2023-03-05T20:00:27.569Z,56.80
2023-03-05T20:05:29.264Z,40.40
2023-03-05T20:10:30.998Z,72.80
2023-03-05T20:15:32.915Z,34.60
2023-03-05T20:20:35.956Z,21.80
2023-03-05T20:25:40.084Z,36.30
2023-03-05T20:30:43.908Z,45.30
2023-03-05T20:35:45.743Z,39.10
2023-03-05T20:40:49.215Z,40.40
2023-03-05T20:45:53.204Z,56.60
2023-03-05T20:50:56.058Z,64.50
2023-03-05T20:55:57.726Z,43.80
2023-03-05T21:00:59.700Z,56.50
2023-03-05T21:06:02.658Z,50.80
2023-03-05T21:11:07.085Z,42.20
2023-03-05T21:16:11.657Z,38.20
2023-03-05T21:21:13.467Z,30.70
2023-03-05T21:26:15.249Z,37.70
2023-03-05T21:31:20.070Z,38.50
2023-03-05T21:36:21.966Z,61.20
2023-03-05T21:41:23.783Z,44.90
2023-03-05T21:46:25.655Z,35.30
2023-03-05T21:51:50.677Z,38.10
2023-03-05T22:07:04.110Z,41.40
2023-03-05T22:12:55.723Z,65.40
2023-03-05T22:18:00.745Z,38.60
2023-03-05T22:23:03.051Z,33.50
2023-03-05T22:28:05.888Z,50.70
2023-03-05T22:33:08.025Z,53.10
2023-03-05T22:38:10.839Z,48.70
2023-03-05T22:43:14.423Z,58.10
2023-03-05T22:48:16.519Z,42.70
2023-03-05T22:53:19.851Z,37.90
2023-03-05T22:58:21.604Z,32.20
2023-03-05T23:03:23.401Z,15.50
2023-03-05T23:08:25.424Z,20.10
2023-03-05T23:13:27.180Z,17.60
2023-03-05T23:18:28.928Z,22.80
2023-03-05T23:23:30.705Z,17.70
2023-03-05T23:28:32.581Z,24.30
2023-03-05T23:33:34.331Z,33.80
2023-03-05T23:38:39.437Z,44.70
2023-03-05T23:43:41.285Z,46.40
2023-03-05T23:48:43.089Z,64.00
2023-03-05T23:53:44.780Z,49.10
2023-03-05T23:58:46.514Z,24.70
